Time;durP1;ratioP1;P1;durP2;ratioP2;P2;SDS_P1;SDS_P2;PMS_P1;PMS_P2;Temp;Humidity;BMP_temperature;BMP_pressure;BME280_temperature;BME280_humidity;BME280_pressure;Samples;Min_cycle;Max_cycle;Signal;HPM_P1;HPM_P2
2024/02/28 00:02:55;;;;;;;8.50;4.80;;;;;;;4.64;58.66;99394.48;102740;1290;600125;-25
2024/02/28 00:05:23;;;;;;;10.00;5.50;;;;;;;4.47;59.01;99395.86;104832;1265;61226;-25
2024/02/28 00:07:52;;;;;;;11.60;6.00;;;;;;;4.33;59.39;99395.70;104913;1266;62657;-25
2024/02/28 00:18:00;;;;;;;10.50;3.10;;;;;;;3.97;60.29;99391.61;102741;1293;599406;-25
2024/02/28 00:20:29;;;;;;;13.30;3.70;;;;;;;4.63;59.50;99394.16;104902;1267;61286;-25
2024/02/28 00:22:57;;;;;;;6.10;3.90;;;;;;;5.19;57.80;99389.91;104897;1269;61184;-25
2024/02/28 00:25:25;;;;;;;10.90;4.40;;;;;;;5.31;57.05;99391.01;104811;1269;70965;-25
2024/02/28 00:27:53;;;;;;;7.70;3.20;;;;;;;5.08;57.42;99387.20;104798;1269;73099;-25
2024/02/28 00:30:21;;;;;;;11.50;4.40;;;;;;;4.86;57.69;99388.86;104792;1269;71571;-25
2024/02/28 06:48:01;;;;;;;13.60;4.30;;;;;;;4.64;63.78;99424.39;102716;1291;600917;-25
2024/02/28 06:50:29;;;;;;;11.70;3.70;;;;;;;4.85;62.86;99428.85;105041;1266;61088;-27
2024/02/28 06:52:58;;;;;;;14.50;3.40;;;;;;;4.92;63.16;99429.19;104804;1271;61152;-28
2024/02/28 06:55:26;;;;;;;12.50;4.40;;;;;;;5.65;61.38;99429.44;104859;1264;71951;-27
2024/02/28 06:57:54;;;;;;;9.10;2.80;;;;;;;6.23;59.60;99432.29;104776;1271;74300;-27
2024/02/28 07:00:22;;;;;;;13.00;2.80;;;;;;;6.49;58.95;99438.75;104873;1267;73110;-25
2024/02/28 07:02:50;;;;;;;14.00;4.10;;;;;;;6.46;58.59;99441.16;104912;1266;224074;-25
2024/02/28 07:05:18;;;;;;;11.50;3.90;;;;;;;6.47;58.66;99438.01;105151;1263;62786;-26
2024/02/28 07:07:46;;;;;;;7.50;3.50;;;;;;;6.49;58.50;99439.44;105090;1265;72166;-25
2024/02/28 07:10:17;;;;;;;16.00;4.70;;;;;;;6.31;58.62;99443.17;105116;1263;77173;-25
2024/02/28 07:12:44;;;;;;;7.40;3.70;;;;;;;6.28;59.01;99442.69;104887;1264;74884;-25
2024/02/28 07:15:12;;;;;;;27.50;4.30;;;;;;;6.38;59.46;99445.05;105146;1264;61269;-25
2024/02/28 07:17:40;;;;;;;13.00;4.10;;;;;;;6.45;59.34;99443.80;105200;1263;61151;-25
2024/02/28 07:20:10;;;;;;;12.30;3.70;;;;;;;6.58;59.28;99446.33;105048;1266;73009;-25
2024/02/28 07:22:39;;;;;;;7.20;3.20;;;;;;;6.71;59.11;99445.42;104900;1270;74990;-25
2024/02/28 07:25:08;;;;;;;12.90;4.50;;;;;;;6.72;58.85;99444.12;105099;1264;74756;-27
2024/02/28 07:27:36;;;;;;;15.00;4.50;;;;;;;6.85;58.80;99444.77;105054;1260;61206;-25
2024/02/28 07:30:04;;;;;;;11.70;3.60;;;;;;;6.95;58.65;99449.14;105237;1265;61100;-25
2024/02/28 07:32:34;;;;;;;6.90;3.40;;;;;;;7.05;58.44;99450.27;105124;1268;73009;-25
2024/02/28 07:35:03;;;;;;;17.20;3.30;;;;;;;7.13;58.64;99448.45;105281;1264;74251;-25
2024/02/28 07:37:31;;;;;;;5.50;3.50;;;;;;;7.28;57.99;99452.05;105293;1260;71374;-26
2024/02/28 07:39:59;;;;;;;14.20;4.50;;;;;;;7.45;57.44;99448.73;105195;1260;61180;-26
2024/02/28 07:42:28;;;;;;;5.20;3.10;;;;;;;7.61;57.21;99447.08;105108;1264;61113;-26
2024/02/28 07:44:56;;;;;;;8.80;4.00;;;;;;;7.72;57.13;99438.91;105165;1259;74813;-26
2024/02/28 07:47:24;;;;;;;6.60;3.10;;;;;;;8.04;56.69;99434.67;105157;1264;76354;-26
2024/02/28 07:49:53;;;;;;;18.80;4.90;;;;;;;8.23;55.95;99437.77;104904;1262;75419;-26
2024/02/28 07:52:21;;;;;;;18.40;4.10;;;;;;;8.41;55.91;99432.99;104881;1268;62043;-26
2024/02/28 07:54:49;;;;;;;9.80;3.50;;;;;;;8.47;55.66;99438.48;105131;1267;61105;-26
2024/02/28 07:57:17;;;;;;;15.20;5.40;;;;;;;8.52;55.21;99433.45;105169;1266;71798;-27
2024/02/28 07:59:45;;;;;;;8.70;4.30;;;;;;;8.71;55.39;99436.20;104973;1263;75731;-27
2024/02/28 08:02:13;;;;;;;13.30;4.50;;;;;;;8.84;55.20;99439.32;104888;1262;75219;-27
2024/02/28 08:04:43;;;;;;;14.20;4.10;;;;;;;8.79;54.91;99435.66;105115;1262;62444;-27
2024/02/28 08:07:11;;;;;;;10.10;4.80;;;;;;;8.79;55.57;99436.21;105193;1262;61748;-26
2024/02/28 08:09:45;;;;;;;7.30;4.10;;;;;;;8.83;55.30;99433.87;104937;1263;72705;-26
2024/02/28 08:12:19;;;;;;;15.70;4.30;;;;;;;8.98;55.24;99438.16;104875;1263;73937;-26
2024/02/28 08:14:55;;;;;;;9.90;4.20;;;;;;;9.09;55.17;99439.01;105078;1268;75693;-26
2024/02/28 08:17:31;;;;;;;8.00;3.70;;;;;;;9.14;54.71;99440.24;104891;1270;61280;-26
2024/02/28 08:20:13;;;;;;;10.60;4.30;;;;;;;9.23;54.71;99437.88;104856;1263;62125;-26
2024/02/28 08:22:46;;;;;;;11.00;3.70;;;;;;;9.33;54.43;99438.54;105206;1262;73147;-26
2024/02/28 08:25:18;;;;;;;16.50;5.20;;;;;;;9.36;54.17;99443.38;104888;1262;77287;-26
2024/02/28 08:27:49;;;;;;;8.50;3.70;;;;;;;9.51;54.08;99441.11;105121;1262;76859;-26
2024/02/28 08:30:30;;;;;;;7.10;3.30;;;;;;;9.65;54.05;99437.23;105195;1263;61646;-27
2024/02/28 08:33:02;;;;;;;7.90;3.20;;;;;;;9.75;53.47;99432.84;104865;1262;61467;-27
2024/02/28 08:35:32;;;;;;;10.00;3.60;;;;;;;9.81;53.54;99429.99;105228;1267;73106;-26
2024/02/28 08:38:13;;;;;;;13.30;4.20;;;;;;;10.00;52.81;99427.73;105247;1262;74382;-27
2024/02/28 08:40:50;;;;;;;12.90;3.80;;;;;;;10.14;52.16;99422.08;105220;1261;74910;-27
2024/02/28 08:43:25;;;;;;;6.30;3.20;;;;;;;10.26;51.89;99422.05;105216;1262;61169;-27
2024/02/28 08:45:57;;;;;;;8.30;3.40;;;;;;;10.42;51.17;99419.68;105335;1256;61222;-27
2024/02/28 08:48:37;;;;;;;9.60;3.80;;;;;;;10.07;51.04;99405.89;105508;1261;74411;-26
2024/02/28 08:51:09;;;;;;;9.70;3.60;;;;;;;10.17;52.02;99412.09;105632;1256;74352;-27
2024/02/28 08:53:39;;;;;;;10.80;4.40;;;;;;;10.50;51.04;99410.95;105349;1259;75168;-27
2024/02/28 08:56:09;;;;;;;9.90;3.50;;;;;;;10.70;50.52;99408.04;105519;1257;61148;-27
2024/02/28 08:58:44;;;;;;;11.60;3.90;;;;;;;10.73;50.01;99407.29;105355;1262;62782;-27
2024/02/28 09:01:19;;;;;;;10.40;4.30;;;;;;;10.96;49.96;99408.48;105183;1264;74403;-27
2024/02/28 09:03:53;;;;;;;7.70;3.30;;;;;;;11.23;49.36;99407.84;105334;1257;76606;-27
2024/02/28 09:06:21;;;;;;;13.80;4.50;;;;;;;11.37;48.88;99405.64;105254;1256;75182;-26
2024/02/28 09:08:50;;;;;;;8.60;3.20;;;;;;;11.52;48.68;99407.30;105454;1258;63817;-27
2024/02/28 09:11:18;;;;;;;8.60;3.40;;;;;;;11.64;48.35;99408.91;105369;1256;62135;-27
2024/02/28 09:13:46;;;;;;;12.20;4.40;;;;;;;11.82;47.72;99408.02;105647;1256;75352;-27
2024/02/28 09:16:14;;;;;;;11.20;3.90;;;;;;;11.83;47.27;99408.32;105670;1260;75852;-27
2024/02/28 09:18:44;;;;;;;17.50;4.10;;;;;;;11.90;47.20;99406.34;105549;1261;73705;-27
2024/02/28 09:21:12;;;;;;;13.10;4.20;;;;;;;12.27;46.85;99402.13;105231;1255;62315;-27
2024/02/28 09:23:41;;;;;;;12.30;4.70;;;;;;;12.46;46.18;99397.98;105129;1257;62751;-27
2024/02/28 09:26:10;;;;;;;11.40;4.00;;;;;;;12.66;46.05;99398.88;105307;1256;75481;-26
2024/02/28 09:28:38;;;;;;;20.90;3.60;;;;;;;12.90;45.21;99390.42;105366;1257;77269;-27
2024/02/28 09:31:07;;;;;;;10.90;3.60;;;;;;;12.97;45.01;99399.79;105404;1257;75153;-27
2024/02/28 09:33:35;;;;;;;12.00;3.50;;;;;;;12.85;44.67;99393.15;105365;1256;63002;-27
2024/02/28 09:36:05;;;;;;;8.30;3.50;;;;;;;12.91;45.21;99399.02;105351;1257;62657;-27
2024/02/28 09:38:34;;;;;;;12.50;3.90;;;;;;;13.00;44.71;99402.69;105165;1257;75269;-27
2024/02/28 09:41:03;;;;;;;7.30;3.90;;;;;;;13.23;44.82;99399.48;105259;1256;77272;-27
2024/02/28 09:43:32;;;;;;;10.80;4.70;;;;;;;13.10;44.23;99398.50;105173;1263;75159;-27
2024/02/28 09:46:04;;;;;;;9.40;4.00;;;;;;;13.19;44.25;99390.17;105260;1256;62078;-27
2024/02/28 09:48:32;;;;;;;13.80;4.90;;;;;;;13.33;43.62;99389.70;105206;1257;62505;-27
2024/02/28 09:51:00;;;;;;;11.60;4.20;;;;;;;13.40;43.37;99387.58;105577;1257;74460;-27
2024/02/28 09:53:28;;;;;;;11.80;3.60;;;;;;;13.27;42.60;99388.71;105610;1260;75142;-27
2024/02/28 09:55:56;;;;;;;11.70;3.90;;;;;;;12.80;42.78;99388.67;105556;1262;75622;-27
2024/02/28 09:58:24;;;;;;;13.90;4.30;;;;;;;13.20;42.79;99387.49;105548;1260;62817;-26
2024/02/28 10:00:52;;;;;;;12.00;3.20;;;;;;;13.81;43.18;99388.52;105265;1264;62512;-26
2024/02/28 10:03:20;;;;;;;13.20;5.10;;;;;;;14.30;42.46;99388.11;105385;1257;75519;-26
2024/02/28 10:05:48;;;;;;;6.20;2.70;;;;;;;14.67;41.15;99389.29;105564;1260;78520;-26
2024/02/28 10:08:17;;;;;;;11.10;3.40;;;;;;;14.68;40.41;99383.80;105475;1262;74095;-27
2024/02/28 10:10:48;;;;;;;10.30;3.20;;;;;;;14.28;40.34;99385.85;105216;1256;63449;-26
2024/02/28 10:13:17;;;;;;;4.60;3.10;;;;;;;13.84;41.35;99380.73;105287;1257;62769;-26
2024/02/28 10:15:45;;;;;;;11.80;3.80;;;;;;;13.86;41.37;99380.02;105328;1264;75937;-27
2024/02/28 10:18:13;;;;;;;6.20;2.70;;;;;;;13.74;40.93;99378.24;105490;1261;77131;-27
2024/02/28 10:20:42;;;;;;;11.20;4.20;;;;;;;13.84;41.18;99377.77;105585;1257;74089;-28
2024/02/28 10:23:10;;;;;;;5.80;3.30;;;;;;;13.62;40.26;99380.05;105641;1257;62895;-27
2024/02/28 10:25:45;;;;;;;10.30;3.70;;;;;;;14.02;41.31;99377.37;109233;1256;61177;-26
2024/02/28 10:28:24;;;;;;;10.80;2.90;;;;;;;14.24;40.03;99378.53;109189;1256;74351;-26
2024/02/28 10:30:52;;;;;;;8.70;3.40;;;;;;;14.19;40.27;99374.27;109227;1256;77904;-26
2024/02/28 10:33:20;;;;;;;14.70;3.80;;;;;;;14.55;40.85;99372.36;109071;1256;76139;-26
2024/02/28 10:35:51;;;;;;;15.80;4.00;;;;;;;14.97;39.71;99367.67;109197;1256;62457;-26
2024/02/28 10:38:19;;;;;;;7.50;3.00;;;;;;;15.19;39.58;99368.01;109069;1255;62291;-26
2024/02/28 10:40:47;;;;;;;10.90;3.80;;;;;;;15.36;39.23;99370.59;109245;1255;75391;-26
2024/02/28 10:43:16;;;;;;;6.80;3.30;;;;;;;15.55;38.29;99359.13;109129;1255;75924;-26
2024/02/28 10:45:44;;;;;;;13.30;2.80;;;;;;;15.61;38.06;99359.11;109017;1263;74688;-26
2024/02/28 10:48:32;;;;;;;3.50;2.50;;;;;;;15.40;37.50;99365.47;109113;1254;63758;-26
2024/02/28 10:51:02;;;;;;;11.00;2.60;;;;;;;15.61;38.09;99366.39;109216;1256;63453;-26
2024/02/28 10:53:32;;;;;;;8.50;3.10;;;;;;;15.63;37.49;99370.94;109073;1256;76502;-26
2024/02/28 10:56:02;;;;;;;5.80;2.30;;;;;;;15.25;38.47;99376.70;109090;1256;75255;-26
2024/02/28 10:58:34;;;;;;;6.40;3.20;;;;;;;15.27;38.46;99372.46;109033;1255;74418;-26
2024/02/28 11:01:03;;;;;;;6.40;3.00;;;;;;;15.19;38.43;99363.81;109008;1256;60962;-26
2024/02/28 11:03:31;;;;;;;9.20;2.70;;;;;;;14.99;38.20;99367.60;109019;1256;61880;-26
2024/02/28 11:05:59;;;;;;;5.90;2.30;;;;;;;14.59;38.51;99361.70;109120;1255;75010;-26
2024/02/28 11:08:28;;;;;;;8.00;2.90;;;;;;;14.18;38.82;99360.56;109202;1256;77941;-26
2024/02/28 11:10:57;;;;;;;8.70;2.60;;;;;;;14.25;39.28;99364.07;109036;1256;75099;-26
2024/02/28 11:13:26;;;;;;;7.70;2.70;;;;;;;14.36;39.12;99367.34;109036;1256;62149;-26
2024/02/28 11:15:57;;;;;;;5.60;2.90;;;;;;;14.23;39.52;99364.83;109099;1256;62398;-26
2024/02/28 11:18:25;;;;;;;13.50;3.00;;;;;;;14.24;40.04;99367.70;109132;1256;75572;-25
2024/02/28 11:20:54;;;;;;;4.40;2.10;;;;;;;14.10;40.03;99359.17;109214;1255;77905;-26
2024/02/28 11:23:22;;;;;;;7.80;2.60;;;;;;;13.91;40.29;99357.57;109068;1256;74616;-25
2024/02/28 11:25:50;;;;;;;6.60;2.70;;;;;;;13.78;40.18;99360.02;109192;1255;61063;-25
2024/02/28 11:28:22;;;;;;;6.30;3.20;;;;;;;13.53;40.74;99346.66;109104;1256;61051;-26
2024/02/28 11:30:50;;;;;;;6.50;3.10;;;;;;;13.42;41.29;99356.84;109089;1256;75676;-25
2024/02/28 11:33:18;;;;;;;7.10;2.70;;;;;;;13.27;41.60;99352.08;109212;1255;76194;-25
2024/02/28 11:35:59;;;;;;;6.40;2.40;;;;;;;13.25;41.63;99344.90;109202;1255;74422;-26
2024/02/28 11:38:27;;;;;;;7.10;2.60;;;;;;;13.30;42.17;99346.88;108943;1255;61801;-26
2024/02/28 11:40:55;;;;;;;6.30;3.10;;;;;;;13.54;42.08;99346.23;109189;1256;62246;-26
2024/02/28 11:43:23;;;;;;;6.80;2.60;;;;;;;13.58;41.79;99340.47;109196;1257;77072;-25
2024/02/28 11:45:55;;;;;;;9.60;3.00;;;;;;;13.57;41.75;99337.94;109210;1255;76265;-26
2024/02/28 11:48:23;;;;;;;8.60;3.20;;;;;;;13.79;42.18;99336.70;109161;1256;74078;-26
2024/02/28 11:50:51;;;;;;;8.60;3.20;;;;;;;13.93;41.65;99342.39;109088;1254;61054;-26
2024/02/28 11:53:19;;;;;;;4.80;2.40;;;;;;;13.86;41.68;99339.00;109530;1252;62329;-25
2024/02/28 11:55:48;;;;;;;10.20;2.60;;;;;;;13.81;41.43;99335.31;109574;1252;77272;-25
2024/02/28 11:58:16;;;;;;;4.20;2.10;;;;;;;13.83;41.39;99332.31;109391;1252;75601;-25
2024/02/28 12:00:48;;;;;;;4.90;2.60;;;;;;;13.86;41.04;99332.05;109572;1252;74989;-26
2024/02/28 12:03:23;;;;;;;6.20;2.10;;;;;;;13.84;40.91;99329.58;109227;1253;61111;-26
2024/02/28 12:05:52;;;;;;;7.10;2.60;;;;;;;13.78;40.86;99329.26;109386;1251;62093;-26
2024/02/28 12:08:20;;;;;;;6.70;2.60;;;;;;;13.71;40.60;99332.53;109340;1252;75933;-26
2024/02/28 12:10:48;;;;;;;6.00;2.20;;;;;;;13.70;41.06;99330.36;109559;1253;75384;-25
2024/02/28 12:13:20;;;;;;;4.20;2.30;;;;;;;13.81;40.86;99331.45;109496;1253;73837;-26
2024/02/28 12:15:48;;;;;;;5.90;2.30;;;;;;;13.90;40.12;99324.02;109312;1253;61943;-25
2024/02/28 12:18:16;;;;;;;4.80;2.30;;;;;;;13.87;40.19;99323.41;109522;1253;63485;-26
2024/02/28 12:20:45;;;;;;;6.80;2.60;;;;;;;14.13;40.20;99328.89;109528;1253;76295;-25
2024/02/28 12:23:13;;;;;;;6.30;2.30;;;;;;;14.36;39.17;99332.02;109517;1253;76348;-25
2024/02/28 12:25:41;;;;;;;7.70;2.70;;;;;;;14.11;38.72;99329.23;109517;1254;73334;-26
2024/02/28 12:28:10;;;;;;;4.40;1.90;;;;;;;14.12;39.63;99326.17;109322;1253;62132;-26
2024/02/28 12:30:44;;;;;;;4.30;2.20;;;;;;;14.14;39.40;99321.10;109295;1253;63363;-25
2024/02/28 12:33:12;;;;;;;9.80;2.70;;;;;;;14.17;39.52;99316.85;109344;1253;74968;-25
2024/02/28 12:35:41;;;;;;;5.70;2.40;;;;;;;14.35;39.80;99322.14;109546;1253;78156;-26
2024/02/28 12:38:10;;;;;;;9.80;2.50;;;;;;;14.23;39.64;99321.33;109351;1253;74373;-26
2024/02/28 12:40:38;;;;;;;5.60;1.80;;;;;;;14.02;39.39;99325.50;109325;1253;62099;-26
2024/02/28 12:43:06;;;;;;;5.60;2.40;;;;;;;14.06;39.95;99322.73;109534;1253;62040;-25
2024/02/28 12:45:34;;;;;;;5.30;2.40;;;;;;;13.94;39.53;99330.45;109539;1253;77285;-26
2024/02/28 12:48:02;;;;;;;6.80;2.30;;;;;;;13.68;39.89;99325.27;109551;1253;76374;-25
2024/02/28 12:50:33;;;;;;;7.20;3.20;;;;;;;13.74;40.28;99329.15;109484;1253;74736;-26
2024/02/28 12:53:01;;;;;;;8.40;2.60;;;;;;;13.74;40.28;99331.17;109495;1253;62177;-26
2024/02/28 12:55:29;;;;;;;7.60;2.50;;;;;;;13.85;40.35;99338.75;109556;1252;60890;-25
2024/02/28 12:57:59;;;;;;;6.00;2.50;;;;;;;13.85;39.98;99335.48;109529;1253;76259;-25
2024/02/28 13:00:27;;;;;;;6.70;2.90;;;;;;;13.82;39.81;99334.34;109336;1253;76341;-25
2024/02/28 13:02:56;;;;;;;6.00;2.80;;;;;;;13.83;40.25;99331.59;109332;1253;74692;-25
2024/02/28 13:05:24;;;;;;;5.80;2.40;;;;;;;13.90;40.29;99329.95;109486;1253;61106;-25
2024/02/28 13:07:55;;;;;;;7.70;2.50;;;;;;;13.96;40.29;99334.27;109454;1253;61686;-26
2024/02/28 13:10:23;;;;;;;3.80;2.30;;;;;;;13.94;40.37;99334.77;109413;1253;76282;-26
2024/02/28 13:12:51;;;;;;;7.90;2.90;;;;;;;13.96;40.65;99330.77;109295;1253;76444;-25
2024/02/28 13:15:19;;;;;;;8.90;2.30;;;;;;;14.02;40.93;99331.88;109280;1255;75144;-26
2024/02/28 13:17:49;;;;;;;6.60;2.40;;;;;;;13.96;40.72;99328.88;109386;1254;62127;-26
2024/02/28 13:20:17;;;;;;;6.70;2.90;;;;;;;13.85;41.11;99323.73;109411;1253;62465;-25
2024/02/28 13:22:45;;;;;;;9.10;2.60;;;;;;;13.88;40.78;99321.06;109412;1253;74795;-26
2024/02/28 13:25:19;;;;;;;7.30;2.50;;;;;;;13.98;40.49;99323.30;109292;1253;75288;-25
2024/02/28 13:28:02;;;;;;;6.40;2.60;;;;;;;14.17;40.60;99321.94;109397;1253;73508;-25
2024/02/28 13:30:37;;;;;;;13.60;4.80;;;;;;;14.30;39.82;99318.79;109391;1254;62532;-26
2024/02/28 13:33:07;;;;;;;9.30;4.00;;;;;;;14.42;39.08;99314.92;109271;1260;61057;-26
2024/02/28 13:36:15;;;;;;;12.30;3.40;;;;;;;14.48;39.30;99313.61;109445;1253;76085;-25
2024/02/28 13:38:43;;;;;;;12.90;3.70;;;;;;;14.55;39.27;99315.61;109422;1253;76799;-26
2024/02/28 13:41:16;;;;;;;12.20;4.20;;;;;;;14.45;38.62;99314.64;109259;1253;73368;-25
2024/02/28 13:44:05;;;;;;;;;;;;;;;;;;;;;
2024/02/28 13:46:34;;;;;;;7.00;2.80;;;;;;;14.44;38.65;99310.67;109280;1253;60564;-25
2024/02/28 13:49:04;;;;;;;13.60;2.80;;;;;;;14.29;39.04;99309.83;109400;1252;76021;-26
2024/02/28 13:51:53;;;;;;;5.80;2.30;;;;;;;14.20;39.00;99305.91;109422;1253;76578;-25
2024/02/28 13:54:21;;;;;;;14.60;3.50;;;;;;;14.22;39.27;99307.48;109390;1254;72568;-25
2024/02/28 13:57:01;;;;;;;5.40;2.60;;;;;;;14.23;38.81;99305.64;109374;1257;61082;-25
2024/02/28 13:59:31;;;;;;;11.70;2.90;;;;;;;13.99;38.79;99300.88;109285;1254;62064;-26
2024/02/28 14:02:00;;;;;;;11.90;4.50;;;;;;;13.87;39.00;99297.44;109412;1253;76263;-26
2024/02/28 14:04:28;;;;;;;7.60;3.10;;;;;;;13.81;39.04;99305.20;109425;1253;76635;-25
2024/02/28 14:06:59;;;;;;;10.50;3.40;;;;;;;13.92;38.80;99308.96;109245;1252;71884;-25
2024/02/28 14:09:27;;;;;;;9.70;3.00;;;;;;;13.89;38.76;99309.45;109067;1256;59741;-25
2024/02/28 14:11:56;;;;;;;10.10;3.50;;;;;;;13.87;38.67;99307.67;109259;1254;62852;-27
2024/02/28 14:14:24;;;;;;;10.30;3.60;;;;;;;13.98;39.03;99309.86;109153;1254;74037;-25
2024/02/28 14:16:59;;;;;;;8.40;3.70;;;;;;;14.01;39.14;99310.27;109260;1254;76378;-25
2024/02/28 14:19:37;;;;;;;5.90;2.70;;;;;;;13.95;39.19;99307.52;109253;1254;73633;-25
2024/02/28 14:22:17;;;;;;;10.40;3.50;;;;;;;14.04;39.25;99307.05;109111;1254;62223;-25
2024/02/28 14:24:53;;;;;;;17.20;4.40;;;;;;;14.18;39.10;99314.64;109240;1257;60040;-25
2024/02/28 14:27:21;;;;;;;6.20;3.00;;;;;;;14.16;39.05;99314.02;109169;1254;74767;-25
2024/02/28 14:29:53;;;;;;;10.00;3.20;;;;;;;13.99;39.39;99314.81;109295;1254;76702;-25
2024/02/28 14:32:27;;;;;;;10.10;3.70;;;;;;;13.80;38.95;99306.41;109096;1254;72853;-25
2024/02/28 14:34:55;;;;;;;7.90;2.70;;;;;;;13.71;39.30;99303.92;109237;1254;62142;-26
2024/02/28 14:37:22;;;;;;;6.60;2.40;;;;;;;13.65;39.19;99305.11;109211;1254;62143;-26
2024/02/28 14:39:51;;;;;;;10.20;3.70;;;;;;;13.77;39.06;99301.06;109269;1260;76128;-25
2024/02/28 14:42:19;;;;;;;6.70;2.60;;;;;;;13.55;38.51;99296.73;109302;1256;76643;-26
2024/02/28 14:44:47;;;;;;;6.80;2.40;;;;;;;13.62;38.07;99295.78;109241;1254;74882;-25
2024/02/28 14:47:15;;;;;;;16.80;4.00;;;;;;;13.56;37.70;99299.63;109255;1254;61985;-26
2024/02/28 14:49:42;;;;;;;6.10;2.80;;;;;;;13.64;37.50;99294.79;109262;1254;61998;-26
2024/02/28 14:52:11;;;;;;;6.50;2.50;;;;;;;13.68;38.01;99300.84;109144;1254;75128;-25
2024/02/28 14:54:39;;;;;;;6.90;2.00;;;;;;;13.67;37.63;99298.00;109126;1254;76757;-25
2024/02/28 14:57:08;;;;;;;4.80;2.60;;;;;;;13.61;38.02;99301.70;109023;1254;73418;-26
2024/02/28 14:59:36;;;;;;;10.40;2.90;;;;;;;13.52;38.63;99303.16;109227;1254;63598;-26
2024/02/28 15:02:04;;;;;;;4.00;2.20;;;;;;;13.43;38.74;99305.70;109125;1254;62137;-26
2024/02/28 15:04:31;;;;;;;11.00;2.90;;;;;;;13.23;38.15;99307.77;109151;1254;73305;-26
2024/02/28 15:06:59;;;;;;;6.50;2.40;;;;;;;13.44;38.26;99309.23;109143;1254;78053;-25
2024/02/28 15:09:29;;;;;;;8.00;2.70;;;;;;;13.47;38.13;99303.81;109114;1257;73227;-25
2024/02/28 15:11:57;;;;;;;14.80;4.40;;;;;;;13.59;38.31;99305.86;109053;1256;59419;-25
2024/02/28 15:14:25;;;;;;;15.60;4.60;;;;;;;13.63;38.74;99304.45;109148;1257;61093;-29
2024/02/28 15:16:53;;;;;;;6.20;3.00;;;;;;;13.43;38.77;99304.15;109152;1256;77289;-25
2024/02/28 15:19:21;;;;;;;13.80;4.20;;;;;;;13.30;39.37;99301.20;109097;1256;76366;-25
2024/02/28 15:21:49;;;;;;;11.00;3.90;;;;;;;13.37;39.31;99303.59;109132;1257;75058;-25
2024/02/28 15:24:17;;;;;;;16.70;5.60;;;;;;;13.27;39.66;99302.52;109050;1257;62872;-25
2024/02/28 15:26:45;;;;;;;11.60;5.10;;;;;;;13.18;40.04;99301.73;109097;1256;59486;-25
2024/02/28 15:29:14;;;;;;;15.50;3.90;;;;;;;13.06;40.02;99309.12;109143;1256;76261;-25
2024/02/28 15:31:41;;;;;;;17.80;5.20;;;;;;;12.95;40.30;99310.02;109157;1256;76671;-25
2024/02/28 15:34:10;;;;;;;13.90;5.50;;;;;;;12.74;40.33;99312.20;109096;1256;73320;-25
2024/02/28 15:36:38;;;;;;;13.40;4.30;;;;;;;12.55;40.92;99311.19;109167;1257;59525;-25
2024/02/28 15:39:06;;;;;;;15.00;5.10;;;;;;;12.39;41.31;99316.34;109080;1256;60043;-25
2024/02/28 15:41:34;;;;;;;21.30;6.20;;;;;;;12.30;41.58;99316.98;109126;1257;77431;-26
2024/02/28 15:44:06;;;;;;;12.50;4.80;;;;;;;12.19;41.70;99317.20;109152;1256;75596;-25
2024/02/28 15:46:34;;;;;;;15.00;4.90;;;;;;;12.03;41.76;99317.63;109133;1257;74689;-25
2024/02/28 15:49:03;;;;;;;16.70;4.80;;;;;;;11.92;41.97;99324.90;109158;1257;62091;-25
2024/02/28 15:51:31;;;;;;;16.80;5.50;;;;;;;11.81;42.20;99328.59;109110;1257;61034;-25
2024/02/28 15:53:59;;;;;;;13.10;4.60;;;;;;;11.77;42.40;99332.58;109028;1256;75760;-25
2024/02/28 15:56:27;;;;;;;7.50;3.70;;;;;;;11.62;42.57;99333.96;109097;1256;75186;-25
2024/02/28 15:58:55;;;;;;;15.60;3.80;;;;;;;11.49;42.78;99335.20;109110;1258;75119;-25
2024/02/28 16:01:23;;;;;;;13.40;5.00;;;;;;;11.38;43.12;99338.14;109032;1257;59389;-25
2024/02/28 16:03:51;;;;;;;14.30;5.40;;;;;;;11.28;42.90;99335.98;109113;1256;62327;-25
2024/02/28 16:06:20;;;;;;;21.80;6.60;;;;;;;11.20;42.91;99338.02;109158;1256;74674;-25
2024/02/28 16:08:57;;;;;;;15.80;5.80;;;;;;;11.11;43.02;99341.15;109169;1256;76510;-26
2024/02/28 16:11:26;;;;;;;8.60;3.90;;;;;;;11.03;43.42;99344.37;109118;1257;72779;-25
2024/02/28 16:13:54;;;;;;;14.20;5.10;;;;;;;10.91;43.12;99346.11;109013;1261;61106;-26
2024/02/28 16:16:22;;;;;;;17.50;9.40;;;;;;;10.85;43.51;99343.84;109080;1256;61241;-25
2024/02/28 16:18:50;;;;;;;18.60;11.10;;;;;;;10.77;44.07;99342.38;109106;1258;74806;-25
2024/02/28 16:21:18;;;;;;;19.20;11.50;;;;;;;10.68;44.45;99343.59;109065;1258;75360;-28
2024/02/28 16:23:46;;;;;;;19.30;11.30;;;;;;;10.65;44.42;99344.20;109058;1256;74174;-26
2024/02/28 16:26:14;;;;;;;25.70;10.70;;;;;;;10.61;44.63;99346.05;109014;1257;58987;-25
2024/02/28 16:28:42;;;;;;;22.50;9.80;;;;;;;10.51;44.92;99348.54;109115;1256;61945;-25
2024/02/28 16:31:10;;;;;;;16.00;8.60;;;;;;;10.45;44.84;99348.31;109110;1257;74857;-25
2024/02/28 16:33:39;;;;;;;21.70;8.20;;;;;;;10.38;45.15;99350.70;109108;1257;77799;-26
2024/02/28 16:36:08;;;;;;;15.20;6.10;;;;;;;10.27;45.69;99350.95;109024;1256;76365;-25
2024/02/28 16:38:36;;;;;;;19.10;6.50;;;;;;;10.15;46.23;99354.98;109102;1257;62339;-26
2024/02/28 16:41:04;;;;;;;10.70;5.60;;;;;;;10.05;46.67;99350.35;109099;1256;63364;-26
2024/02/28 16:43:32;;;;;;;10.20;4.90;;;;;;;9.94;46.94;99354.08;109068;1256;75312;-26
2024/02/28 16:46:00;;;;;;;17.70;6.60;;;;;;;9.86;47.42;99354.05;109052;1256;74039;-26
2024/02/28 16:48:28;;;;;;;16.90;5.80;;;;;;;9.75;47.75;99355.00;109031;1256;72621;-26
2024/02/28 16:50:56;;;;;;;12.70;5.30;;;;;;;9.68;47.91;99353.58;109024;1257;61600;-26
2024/02/28 16:53:30;;;;;;;10.90;5.30;;;;;;;9.62;48.19;99356.63;109044;1256;60644;-26
2024/02/28 16:56:00;;;;;;;10.20;5.00;;;;;;;9.52;48.54;99356.12;109061;1256;76324;-26
2024/02/28 16:58:30;;;;;;;10.80;5.10;;;;;;;9.46;49.10;99357.77;108989;1256;75448;-25
2024/02/28 17:00:58;;;;;;;12.50;6.20;;;;;;;9.40;49.05;99358.70;109097;1257;75997;-26
2024/02/28 17:03:27;;;;;;;11.00;6.20;;;;;;;9.32;49.08;99354.02;109040;1257;61628;-26
2024/02/28 17:05:55;;;;;;;23.30;15.30;;;;;;;9.33;49.40;99354.02;109270;1257;62309;-25
2024/02/28 17:08:24;;;;;;;25.60;16.60;;;;;;;9.33;49.43;99356.77;108995;1258;77279;-26
2024/02/28 17:10:54;;;;;;;15.00;9.10;;;;;;;9.30;49.79;99354.59;108886;1257;74742;-26
2024/02/28 17:13:25;;;;;;;18.60;7.20;;;;;;;9.26;50.11;99354.52;108915;1260;71266;-26
2024/02/28 17:16:01;;;;;;;11.70;6.30;;;;;;;9.25;50.36;99355.13;108916;1257;61524;-26
2024/02/28 17:18:33;;;;;;;14.70;6.30;;;;;;;9.21;50.42;99352.05;108948;1257;60036;-25
2024/02/28 17:21:03;;;;;;;25.60;15.80;;;;;;;9.16;50.65;99350.38;108921;1257;76099;-26
2024/02/28 17:23:32;;;;;;;25.40;14.40;;;;;;;9.13;50.90;99353.39;108985;1257;75375;-26
2024/02/28 17:26:02;;;;;;;20.50;11.70;;;;;;;9.08;50.76;99356.08;108798;1257;74530;-26
2024/02/28 17:28:33;;;;;;;17.70;10.30;;;;;;;9.03;50.96;99352.98;108911;1257;59542;-26
2024/02/28 17:31:04;;;;;;;13.60;8.00;;;;;;;8.99;51.03;99349.76;108927;1257;61006;-25
2024/02/28 17:33:37;;;;;;;14.10;7.30;;;;;;;8.96;51.17;99352.83;108980;1257;76110;-26
2024/02/28 17:36:06;;;;;;;17.40;6.70;;;;;;;8.92;51.22;99349.59;108951;1257;75590;-26
2024/02/28 17:38:37;;;;;;;13.00;7.00;;;;;;;8.92;50.99;99347.30;108914;1258;72462;-26
2024/02/28 17:41:08;;;;;;;16.40;6.90;;;;;;;8.86;51.11;99346.37;108872;1257;61370;-26
2024/02/28 17:43:39;;;;;;;23.70;8.00;;;;;;;8.81;51.26;99345.69;108953;1257;62280;-26
2024/02/28 17:46:09;;;;;;;18.00;7.20;;;;;;;8.74;51.52;99345.79;108983;1257;76163;-26
2024/02/28 17:48:42;;;;;;;19.20;7.40;;;;;;;8.70;51.54;99345.24;108993;1257;76677;-27
2024/02/28 17:51:14;;;;;;;11.70;5.90;;;;;;;8.66;51.64;99338.05;108974;1257;74866;-26
2024/02/28 17:53:45;;;;;;;12.20;5.10;;;;;;;8.60;51.89;99338.27;108950;1257;60330;-25
2024/02/28 17:56:15;;;;;;;13.60;6.40;;;;;;;8.53;52.01;99340.83;108931;1257;60678;-25
2024/02/28 17:58:45;;;;;;;15.50;6.20;;;;;;;8.43;52.04;99339.55;108966;1257;74994;-26
2024/02/28 18:01:15;;;;;;;13.90;6.00;;;;;;;8.36;52.24;99340.39;108970;1257;76527;-26